Time;durP1;ratioP1;P1;durP2;ratioP2;P2;SDS_P1;SDS_P2;PMS_P1;PMS_P2;Temp;Humidity;BMP_temperature;BMP_pressure;BME280_temperature;BME280_humidity;BME280_pressure;Samples;Min_cycle;Max_cycle;Signal;HPM_P1;HPM_P2
2021/08/14 00:02:07;;;;;;;31.17;13.28;;;;;;;13.58;84.69;95376.92;1706681;83;20954;-56
2021/08/14 00:04:33;;;;;;;34.20;13.28;;;;;;;13.53;84.85;95369.22;1722948;82;21076;-56
2021/08/14 00:07:02;;;;;;;35.10;14.07;;;;;;;13.52;84.79;95372.61;1724974;82;21544;-57
2021/08/14 00:09:29;;;;;;;34.15;13.95;;;;;;;13.51;84.71;95371.06;1727683;82;21165;-57
2021/08/14 00:11:57;;;;;;;23.92;11.75;;;;;;;13.51;84.76;95373.05;1701235;83;20978;-56
2021/08/14 00:14:25;;;;;;;30.45;12.90;;;;;;;13.50;84.52;95375.65;1707579;83;21477;-56
2021/08/14 00:16:52;;;;;;;42.80;15.35;;;;;;;13.46;84.33;95376.39;1703239;82;21093;-56
2021/08/14 00:19:20;;;;;;;37.42;15.08;;;;;;;13.42;84.48;95373.00;1710484;83;20973;-56
2021/08/14 00:21:47;;;;;;;39.78;15.20;;;;;;;13.40;84.99;95377.58;1708362;83;21991;-56
2021/08/14 00:24:15;;;;;;;37.35;16.65;;;;;;;13.37;85.17;95374.34;1709709;83;20949;-56
2021/08/14 00:26:42;;;;;;;35.25;16.48;;;;;;;13.38;85.06;95376.48;1711729;83;21049;-56
2021/08/14 00:29:09;;;;;;;33.75;14.93;;;;;;;13.38;84.83;95375.88;1702784;83;21053;-56
2021/08/14 00:31:36;;;;;;;44.13;16.30;;;;;;;13.34;84.89;95374.45;1701542;83;20982;-56
2021/08/14 00:34:03;;;;;;;32.58;12.95;;;;;;;13.33;84.88;95372.91;1707531;82;21132;-56
2021/08/14 00:36:30;;;;;;;25.77;12.53;;;;;;;13.33;84.95;95375.67;1702585;83;21011;-56
2021/08/14 00:38:59;;;;;;;29.92;13.03;;;;;;;13.32;85.08;95372.75;1700841;83;21010;-57
2021/08/14 00:41:30;;;;;;;22.10;10.98;;;;;;;13.30;85.26;95377.96;1709843;83;20978;-57
2021/08/14 00:44:02;;;;;;;21.70;11.85;;;;;;;13.28;85.00;95370.73;1714243;83;21091;-57
2021/08/14 00:46:31;;;;;;;23.20;11.45;;;;;;;13.21;84.63;95366.82;1716526;81;21153;-57
2021/08/14 00:48:58;;;;;;;22.20;10.85;;;;;;;13.17;84.68;95371.11;1718192;82;20950;-57
2021/08/14 00:51:25;;;;;;;27.37;11.53;;;;;;;13.14;84.67;95379.52;1719807;81;20962;-55
2021/08/14 00:53:53;;;;;;;17.05;10.98;;;;;;;13.14;84.84;95380.30;1714952;82;21449;-56
2021/08/14 00:56:25;;;;;;;17.77;9.73;;;;;;;13.12;85.13;95377.81;1681426;83;22476;-56
2021/08/14 00:58:53;;;;;;;24.23;10.48;;;;;;;13.05;85.04;95375.31;1717176;82;21195;-55
2021/08/14 01:01:24;;;;;;;30.23;12.40;;;;;;;12.89;85.08;95372.68;1713352;82;21509;-56
2021/08/14 01:03:52;;;;;;;32.45;12.90;;;;;;;12.75;85.50;95370.39;1723210;82;21037;-56
2021/08/14 01:06:20;;;;;;;30.37;13.38;;;;;;;12.73;86.06;95369.44;1731946;81;20987;-56
2021/08/14 01:08:47;;;;;;;22.13;11.88;;;;;;;12.78;86.32;95368.11;1716322;82;20986;-56
2021/08/14 01:11:15;;;;;;;29.57;11.53;;;;;;;12.84;86.28;95366.32;1711730;82;21451;-56
2021/08/14 01:13:44;;;;;;;39.75;13.38;;;;;;;12.89;85.96;95370.67;1700993;83;21214;-56
2021/08/14 01:16:12;;;;;;;43.78;13.43;;;;;;;12.90;85.78;95367.31;1708774;83;20955;-56
2021/08/14 01:18:40;;;;;;;28.40;12.33;;;;;;;12.85;85.82;95365.09;1693249;83;21075;-55
2021/08/14 01:21:08;;;;;;;24.40;12.00;;;;;;;12.82;85.97;95367.37;1691278;83;21030;-56
2021/08/14 01:23:35;;;;;;;21.68;10.10;;;;;;;12.81;85.82;95366.63;1690107;83;21228;-55
2021/08/14 01:26:07;;;;;;;20.65;10.25;;;;;;;12.79;85.79;95364.92;1686666;83;20954;-55
2021/08/14 01:28:34;;;;;;;13.75;9.45;;;;;;;12.78;85.54;95363.38;1703625;81;21030;-57
2021/08/14 01:31:03;;;;;;;30.25;11.30;;;;;;;12.79;85.37;95355.85;1713100;82;21454;-56
2021/08/14 01:33:32;;;;;;;33.38;12.95;;;;;;;12.81;85.39;95356.17;1713529;83;21073;-57
2021/08/14 01:35:59;;;;;;;30.88;12.45;;;;;;;12.82;85.68;95349.43;1715930;83;21154;-55
2021/08/14 01:38:25;;;;;;;19.45;9.70;;;;;;;12.81;85.65;95346.50;1712510;82;21011;-54
2021/08/14 01:40:52;;;;;;;18.10;10.28;;;;;;;12.78;85.28;95352.92;1712111;82;21042;-55
2021/08/14 01:43:20;;;;;;;19.27;10.32;;;;;;;12.72;85.19;95339.53;1713729;82;20997;-56
2021/08/14 01:45:49;;;;;;;21.73;10.20;;;;;;;12.69;85.17;95349.47;1716404;82;21106;-54
2021/08/14 01:48:16;;;;;;;22.32;10.58;;;;;;;12.68;85.44;95344.41;1715381;82;21132;-57
2021/08/14 01:50:45;;;;;;;25.08;11.18;;;;;;;12.65;85.67;95339.76;1714021;82;21502;-55
2021/08/14 01:53:13;;;;;;;25.00;11.05;;;;;;;12.58;85.83;95330.34;1709469;82;21046;-55
2021/08/14 01:55:40;;;;;;;19.32;11.00;;;;;;;12.54;85.96;95339.36;1691065;83;21061;-56
2021/08/14 01:58:09;;;;;;;33.73;12.07;;;;;;;12.52;86.14;95338.25;1717458;82;20962;-55
2021/08/14 02:00:36;;;;;;;24.75;11.25;;;;;;;12.50;86.21;95340.09;1713672;82;21180;-57
2021/08/14 02:03:03;;;;;;;20.45;11.00;;;;;;;12.46;86.38;95340.80;1713854;82;21085;-55
2021/08/14 02:05:30;;;;;;;38.55;12.05;;;;;;;12.47;86.62;95341.58;1714637;83;21042;-56
2021/08/14 02:07:58;;;;;;;24.15;11.45;;;;;;;12.46;86.46;95335.90;1713224;82;21141;-58
2021/08/14 02:10:25;;;;;;;21.02;11.12;;;;;;;12.45;86.53;95344.77;1722555;82;21465;-56
2021/08/14 02:12:51;;;;;;;27.15;13.05;;;;;;;12.45;86.51;95344.02;1713975;81;21542;-57
2021/08/14 02:15:19;;;;;;;25.88;12.25;;;;;;;12.38;86.26;95336.73;1710336;83;21003;-56
2021/08/14 02:17:46;;;;;;;31.12;10.60;;;;;;;12.29;86.32;95336.63;1714099;82;20993;-56
2021/08/14 02:20:14;;;;;;;28.38;11.75;;;;;;;12.27;86.49;95339.06;1714977;82;21513;-57
2021/08/14 02:22:41;;;;;;;30.80;10.55;;;;;;;12.28;86.43;95337.09;1712269;82;20999;-56
2021/08/14 02:25:09;;;;;;;20.45;10.55;;;;;;;12.28;86.35;95337.84;1713591;82;21160;-56
2021/08/14 02:27:36;;;;;;;32.20;11.75;;;;;;;12.29;86.26;95340.01;1696439;83;20987;-57
2021/08/14 02:30:08;;;;;;;31.48;11.28;;;;;;;12.30;86.32;95348.45;1713292;82;21323;-57
2021/08/14 02:32:35;;;;;;;31.93;11.57;;;;;;;12.29;86.31;95338.63;1716984;82;21074;-56
2021/08/14 02:35:01;;;;;;;25.08;11.57;;;;;;;12.25;86.56;95341.48;1709756;82;21501;-56
2021/08/14 02:37:30;;;;;;;35.85;11.75;;;;;;;12.26;86.74;95345.04;1710951;82;21081;-56
2021/08/14 02:39:57;;;;;;;27.60;12.07;;;;;;;12.27;86.79;95340.44;1717732;82;20923;-56
2021/08/14 02:42:24;;;;;;;30.62;11.93;;;;;;;12.27;86.71;95348.72;1708586;83;20991;-57
2021/08/14 02:44:50;;;;;;;27.48;11.83;;;;;;;12.25;86.65;95353.15;1715884;82;21062;-55
2021/08/14 02:47:17;;;;;;;20.88;11.28;;;;;;;12.22;86.50;95347.90;1714418;82;21040;-56
2021/08/14 02:49:45;;;;;;;24.30;12.93;;;;;;;12.17;86.40;95355.36;1715483;83;21553;-56
2021/08/14 02:52:14;;;;;;;26.57;12.47;;;;;;;12.17;86.79;95357.33;1711399;82;20979;-56
2021/08/14 02:54:41;;;;;;;26.55;11.50;;;;;;;12.20;86.53;95361.37;1710562;81;21437;-56
2021/08/14 02:57:08;;;;;;;20.50;10.78;;;;;;;12.19;86.11;95356.28;1701635;83;21045;-56
2021/08/14 02:59:36;;;;;;;24.63;10.30;;;;;;;12.16;86.11;95360.71;1698869;83;21011;-56
2021/08/14 03:02:04;;;;;;;27.60;11.63;;;;;;;12.12;86.07;95362.03;1709752;83;21126;-56
2021/08/14 03:04:31;;;;;;;23.45;10.98;;;;;;;12.06;86.09;95371.45;1713175;83;21076;-56
2021/08/14 03:06:57;;;;;;;30.00;10.78;;;;;;;12.01;85.94;95369.85;1703368;83;21538;-56
2021/08/14 03:09:24;;;;;;;28.52;11.90;;;;;;;11.92;86.12;95369.13;1714723;83;21025;-56
2021/08/14 03:11:52;;;;;;;26.57;10.78;;;;;;;11.85;86.25;95369.36;1710373;83;21077;-55
2021/08/14 03:14:19;;;;;;;20.97;9.85;;;;;;;11.78;86.53;95368.20;1704945;83;21136;-55
2021/08/14 03:16:47;;;;;;;17.87;9.33;;;;;;;11.77;86.86;95367.25;1691667;83;21073;-55
2021/08/14 03:19:14;;;;;;;22.52;9.38;;;;;;;11.75;87.14;95363.55;1694770;83;21461;-55
2021/08/14 03:21:42;;;;;;;15.45;9.88;;;;;;;11.77;87.43;95372.17;1705107;83;21014;-60
2021/08/14 03:24:10;;;;;;;17.65;10.25;;;;;;;11.74;87.62;95374.41;1703403;82;21537;-55
2021/08/14 03:26:39;;;;;;;20.50;10.25;;;;;;;11.73;87.78;95374.23;1702662;84;21525;-56
2021/08/14 03:29:07;;;;;;;19.42;9.60;;;;;;;11.74;87.79;95369.51;1701288;83;21454;-57
2021/08/14 03:31:35;;;;;;;19.95;10.20;;;;;;;11.71;87.65;95371.15;1701605;84;20982;-57
2021/08/14 03:34:02;;;;;;;34.20;11.03;;;;;;;11.69;87.85;95371.44;1701283;83;20985;-56
2021/08/14 03:36:30;;;;;;;27.25;11.65;;;;;;;11.64;87.80;95372.75;1700677;82;21062;-57
2021/08/14 03:38:57;;;;;;;21.87;12.10;;;;;;;11.63;87.99;95380.85;1704598;83;21144;-57
2021/08/14 03:41:25;;;;;;;23.38;10.28;;;;;;;11.65;88.22;95375.67;1704491;83;20951;-57
2021/08/14 03:43:51;;;;;;;28.55;10.10;;;;;;;11.70;88.36;95384.02;1706071;83;21006;-56
2021/08/14 03:46:18;;;;;;;25.55;9.95;;;;;;;11.73;88.19;95378.38;1707221;83;21829;-57
2021/08/14 03:48:45;;;;;;;19.98;10.13;;;;;;;11.76;87.89;95371.22;1708018;83;21064;-57
2021/08/14 03:51:11;;;;;;;23.25;10.60;;;;;;;11.76;87.79;95369.25;1706724;83;21105;-57
2021/08/14 03:53:38;;;;;;;25.23;11.35;;;;;;;11.77;87.77;95376.31;1713091;83;21453;-57
2021/08/14 03:56:05;;;;;;;27.52;12.03;;;;;;;11.78;87.88;95376.47;1705643;83;21018;-56
2021/08/14 03:58:34;;;;;;;22.00;10.55;;;;;;;11.82;88.03;95376.34;1710073;83;21088;-57
2021/08/14 04:01:02;;;;;;;23.12;10.25;;;;;;;11.89;88.14;95374.77;1709028;83;21001;-57
2021/08/14 04:03:30;;;;;;;26.95;12.15;;;;;;;11.98;88.10;95372.11;1703326;83;21813;-57
2021/08/14 04:05:57;;;;;;;20.65;9.85;;;;;;;12.07;88.11;95374.37;1704302;83;21022;-57
2021/08/14 04:08:24;;;;;;;18.57;10.13;;;;;;;12.18;88.15;95378.97;1703468;83;21417;-57
2021/08/14 04:10:51;;;;;;;24.77;10.32;;;;;;;12.28;87.68;95368.19;1703662;83;21136;-57
2021/08/14 04:13:17;;;;;;;16.75;9.53;;;;;;;12.37;87.41;95374.42;1703068;83;21612;-56
2021/08/14 04:15:44;;;;;;;22.67;11.68;;;;;;;12.48;87.01;95381.14;1702679;83;21775;-55
2021/08/14 04:18:12;;;;;;;23.60;11.50;;;;;;;12.53;86.59;95377.05;1710526;83;20986;-57
2021/08/14 04:20:39;;;;;;;19.00;11.05;;;;;;;12.53;86.30;95381.19;1709196;82;21485;-57
2021/08/14 04:23:07;;;;;;;20.97;9.83;;;;;;;12.50;86.35;95381.49;1704995;83;20930;-57
2021/08/14 04:25:34;;;;;;;29.48;10.70;;;;;;;12.51;86.65;95387.77;1699907;83;20994;-57
2021/08/14 04:28:01;;;;;;;23.95;10.70;;;;;;;12.49;86.79;95388.20;1701316;83;21678;-58
2021/08/14 04:30:28;;;;;;;20.77;10.60;;;;;;;12.45;86.96;95390.30;1703691;83;20994;-57
2021/08/14 04:32:54;;;;;;;30.40;11.90;;;;;;;12.43;87.29;95388.59;1702145;83;20958;-56
2021/08/14 04:35:21;;;;;;;26.68;12.18;;;;;;;12.42;87.08;95387.06;1701298;83;21044;-57
2021/08/14 04:37:50;;;;;;;26.37;11.35;;;;;;;12.40;87.26;95387.33;1705749;83;21013;-57
2021/08/14 04:40:17;;;;;;;39.38;12.60;;;;;;;12.40;87.28;95381.80;1710111;82;21138;-56
2021/08/14 04:42:44;;;;;;;38.92;13.53;;;;;;;12.39;87.27;95383.02;1704446;82;21025;-57
2021/08/14 04:45:13;;;;;;;30.23;13.28;;;;;;;12.40;87.73;95381.80;1708825;83;21086;-57
2021/08/14 04:47:39;;;;;;;21.07;11.63;;;;;;;12.46;87.66;95373.91;1703946;83;21101;-56
2021/08/14 04:50:08;;;;;;;30.77;11.33;;;;;;;12.50;87.57;95373.21;1701543;83;21006;-57
2021/08/14 04:52:35;;;;;;;39.00;12.75;;;;;;;12.55;87.82;95376.78;1704226;83;21093;-57
2021/08/14 04:55:02;;;;;;;24.07;12.20;;;;;;;12.69;87.84;95374.94;1703184;83;21049;-57
2021/08/14 04:57:30;;;;;;;25.80;12.40;;;;;;;12.78;87.48;95371.66;1709845;82;21018;-57
2021/08/14 04:59:57;;;;;;;17.48;10.95;;;;;;;12.87;87.39;95366.20;1712262;82;21006;-57
2021/08/14 05:02:26;;;;;;;21.52;9.48;;;;;;;12.96;87.24;95370.48;1709131;82;20998;-57
2021/08/14 05:04:53;;;;;;;21.68;10.18;;;;;;;13.06;86.91;95370.70;1727003;81;22290;-58
2021/08/14 05:07:21;;;;;;;22.45;10.00;;;;;;;13.14;86.69;95371.23;1684315;85;20978;-57
2021/08/14 05:09:48;;;;;;;25.90;11.03;;;;;;;13.19;86.65;95359.59;1676749;85;21479;-57
2021/08/14 05:12:16;;;;;;;26.07;11.03;;;;;;;13.25;86.51;95355.05;1632544;86;21030;-58
2021/08/14 05:14:44;;;;;;;23.07;10.28;;;;;;;13.34;86.38;95360.64;1703145;83;21026;-57
2021/08/14 05:17:10;;;;;;;26.80;9.68;;;;;;;13.42;86.24;95363.32;1702868;83;21084;-57
2021/08/14 05:19:37;;;;;;;13.08;8.90;;;;;;;13.54;86.20;95353.58;1699763;83;20982;-56
2021/08/14 05:22:06;;;;;;;11.18;8.40;;;;;;;13.66;85.82;95355.47;1707701;83;21508;-56
2021/08/14 05:24:33;;;;;;;18.23;9.28;;;;;;;13.74;85.32;95355.98;1702483;83;21568;-57
2021/08/14 05:27:00;;;;;;;17.80;9.73;;;;;;;13.84;85.04;95358.97;1703587;83;21005;-57
2021/08/14 05:29:28;;;;;;;16.37;8.90;;;;;;;13.97;84.72;95349.98;1699145;83;21134;-57
2021/08/14 05:31:54;;;;;;;14.95;9.15;;;;;;;14.08;84.45;95346.95;1702659;83;21049;-57
2021/08/14 05:34:21;;;;;;;20.60;10.25;;;;;;;14.20;84.14;95344.70;1697016;83;21006;-58
2021/08/14 05:36:49;;;;;;;21.82;9.03;;;;;;;14.33;83.76;95340.47;1705888;83;21009;-57
2021/08/14 05:39:16;;;;;;;16.80;9.38;;;;;;;14.46;83.45;95341.25;1714401;83;21588;-59
2021/08/14 05:41:47;;;;;;;18.92;8.95;;;;;;;14.61;82.85;95342.22;1711041;82;21130;-58
2021/08/14 05:44:13;;;;;;;24.35;9.25;;;;;;;14.74;82.59;95337.33;1708126;83;21469;-59
2021/08/14 05:46:39;;;;;;;15.10;8.78;;;;;;;14.93;82.15;95336.72;1703516;83;21006;-57
2021/08/14 05:49:06;;;;;;;16.07;8.75;;;;;;;15.10;81.70;95333.80;1709499;83;21027;-58
2021/08/14 05:51:36;;;;;;;12.47;8.00;;;;;;;15.26;81.37;95331.52;1710789;83;21129;-57
2021/08/14 05:54:04;;;;;;;22.27;9.10;;;;;;;15.40;80.58;95326.73;1704774;83;21142;-58
2021/08/14 05:56:31;;;;;;;19.82;9.48;;;;;;;15.50;79.88;95331.05;1713755;83;20931;-57
2021/08/14 05:58:58;;;;;;;13.35;8.13;;;;;;;15.62;79.62;95334.27;1714480;83;20955;-59
2021/08/14 06:01:24;;;;;;;11.50;7.72;;;;;;;15.78;79.01;95336.71;1708863;83;21432;-58
2021/08/14 06:03:51;;;;;;;11.85;7.78;;;;;;;15.91;77.96;95320.63;1704246;83;21071;-56
2021/08/14 06:06:18;;;;;;;10.75;7.90;;;;;;;15.95;77.20;95329.55;1709237;83;21940;-56
2021/08/14 06:08:45;;;;;;;12.13;8.35;;;;;;;16.00;76.97;95324.77;1708737;83;21042;-57
2021/08/14 06:11:12;;;;;;;14.35;8.10;;;;;;;16.11;76.54;95327.80;1712335;81;21485;-58
2021/08/14 06:13:39;;;;;;;18.70;7.25;;;;;;;16.22;76.44;95326.68;1712820;83;21004;-56
2021/08/14 06:16:09;;;;;;;17.37;8.23;;;;;;;16.35;75.92;95325.89;1698539;83;20969;-57
2021/08/14 06:18:40;;;;;;;37.28;22.05;;;;;;;16.45;75.58;95321.81;1702717;82;21179;-58
2021/08/14 06:21:10;;;;;;;21.57;13.78;;;;;;;16.54;75.33;95319.00;1697231;83;21545;-58
2021/08/14 06:23:36;;;;;;;17.75;9.55;;;;;;;16.65;75.11;95317.84;1704968;83;21078;-58
2021/08/14 06:26:03;;;;;;;12.33;9.43;;;;;;;16.73;74.66;95312.09;1712812;83;21429;-58
2021/08/14 06:28:32;;;;;;;13.25;8.73;;;;;;;16.81;74.44;95307.70;1708212;82;21195;-57
2021/08/14 06:30:59;;;;;;;17.40;7.72;;;;;;;16.91;74.19;95313.36;1710955;83;21216;-58
2021/08/14 06:33:27;;;;;;;14.03;7.87;;;;;;;16.98;74.00;95311.00;1708318;83;21099;-58
2021/08/14 06:35:53;;;;;;;11.65;7.50;;;;;;;17.06;73.80;95308.63;1706245;83;21480;-58
2021/08/14 06:38:22;;;;;;;16.10;7.58;;;;;;;17.19;73.61;95307.73;1704646;83;21125;-58
2021/08/14 06:40:48;;;;;;;16.40;8.18;;;;;;;17.30;73.11;95302.39;1709788;83;21072;-58
2021/08/14 06:43:15;;;;;;;11.95;8.30;;;;;;;17.42;72.65;95304.17;1686459;84;23125;-56
2021/08/14 06:45:42;;;;;;;18.15;8.60;;;;;;;17.54;72.28;95297.55;1708106;83;21102;-57
2021/08/14 06:48:10;;;;;;;10.93;7.92;;;;;;;17.66;72.23;95297.91;1704071;82;21006;-57
2021/08/14 06:50:37;;;;;;;17.27;9.05;;;;;;;17.83;71.62;95301.11;1715708;83;21120;-63
2021/08/14 06:53:06;;;;;;;18.35;7.85;;;;;;;17.95;71.21;95295.88;1712391;83;20950;-57
2021/08/14 06:55:33;;;;;;;9.93;7.08;;;;;;;18.06;70.71;95296.07;1708613;82;21913;-58
2021/08/14 06:58:00;;;;;;;15.85;7.87;;;;;;;18.19;70.34;95288.94;1712824;83;20997;-58
2021/08/14 07:00:27;;;;;;;16.02;7.40;;;;;;;18.30;69.81;95289.76;1713043;83;20974;-59
2021/08/14 07:02:55;;;;;;;21.85;8.48;;;;;;;18.37;69.58;95280.38;1708564;83;21006;-58
2021/08/14 07:05:24;;;;;;;16.23;7.78;;;;;;;18.48;69.48;95283.30;1707401;83;21005;-58
2021/08/14 07:07:51;;;;;;;14.78;8.43;;;;;;;18.62;69.27;95286.68;1718308;83;21784;-58
2021/08/14 07:10:17;;;;;;;9.83;7.17;;;;;;;18.76;68.63;95288.66;1712772;81;21058;-58
2021/08/14 07:12:44;;;;;;;17.48;7.72;;;;;;;18.89;68.27;95287.69;1711749;82;21298;-59
2021/08/14 07:15:13;;;;;;;13.20;6.78;;;;;;;19.03;67.68;95283.29;1712655;82;21038;-57
2021/08/14 07:17:40;;;;;;;13.32;8.55;;;;;;;19.16;66.94;95280.92;1718865;83;21562;-58
2021/08/14 07:20:09;;;;;;;14.78;7.90;;;;;;;19.28;67.28;95277.80;1715864;83;21255;-56
2021/08/14 07:22:37;;;;;;;11.50;8.23;;;;;;;19.43;67.08;95275.67;1711366;82;21388;-58
2021/08/14 07:25:06;;;;;;;10.25;7.22;;;;;;;19.58;66.69;95270.73;1711017;83;21089;-57
2021/08/14 07:27:32;;;;;;;12.70;6.97;;;;;;;19.76;66.28;95275.98;1709936;82;20979;-58
2021/08/14 07:30:00;;;;;;;16.17;7.62;;;;;;;19.89;65.08;95270.03;1711697;83;21026;-59
2021/08/14 07:32:27;;;;;;;8.65;6.42;;;;;;;20.00;64.69;95266.70;1713492;82;21819;-59
2021/08/14 07:35:05;;;;;;;15.53;6.85;;;;;;;20.11;64.00;95267.45;1717130;82;21124;-59
2021/08/14 07:37:33;;;;;;;15.23;7.58;;;;;;;20.27;63.35;95264.77;1713627;82;21035;-58
2021/08/14 07:40:02;;;;;;;14.23;7.25;;;;;;;20.45;63.28;95260.19;1717015;82;21516;-57
2021/08/14 07:42:29;;;;;;;17.37;7.45;;;;;;;20.60;63.01;95256.59;1713042;82;21574;-59
2021/08/14 07:44:56;;;;;;;12.37;6.20;;;;;;;20.77;61.95;95256.06;1707091;83;21057;-59
2021/08/14 07:47:23;;;;;;;12.33;7.22;;;;;;;20.84;61.09;95252.81;1712884;82;21090;-57
2021/08/14 07:49:50;;;;;;;11.43;7.03;;;;;;;20.94;60.71;95255.54;1716091;82;21030;-57
2021/08/14 07:52:17;;;;;;;14.47;7.50;;;;;;;21.03;60.66;95245.52;1711484;82;20994;-59
2021/08/14 07:54:58;;;;;;;10.23;8.38;;;;;;;21.15;59.84;95247.09;1713609;82;21703;-61
2021/08/14 07:57:26;;;;;;;18.17;7.27;;;;;;;21.26;59.44;95245.09;1696174;82;21068;-59
2021/08/14 07:59:54;;;;;;;10.23;6.40;;;;;;;21.38;59.04;95244.48;1709146;83;20986;-59
2021/08/14 08:02:21;;;;;;;14.50;6.83;;;;;;;21.49;58.35;95240.33;1710116;82;21017;-58
2021/08/14 08:04:48;;;;;;;20.75;13.65;;;;;;;21.61;57.60;95238.44;1711191;82;21050;-58
2021/08/14 08:07:15;;;;;;;10.82;7.83;;;;;;;21.77;57.23;95234.15;1713555;82;20959;-58
2021/08/14 08:09:42;;;;;;;9.83;6.90;;;;;;;21.93;56.75;95236.20;1716252;82;21119;-59
2021/08/14 08:12:10;;;;;;;17.55;6.58;;;;;;;22.06;56.20;95235.19;1712754;83;21046;-57
2021/08/14 08:14:37;;;;;;;16.42;6.25;;;;;;;22.19;55.91;95229.84;1699646;83;20998;-58
2021/08/14 08:17:05;;;;;;;12.73;6.30;;;;;;;22.35;55.77;95234.67;1678110;83;20975;-58
2021/08/14 08:19:32;;;;;;;8.00;6.08;;;;;;;22.46;55.75;95230.45;1704392;83;21083;-58
2021/08/14 08:22:00;;;;;;;10.15;5.75;;;;;;;22.59;55.37;95226.48;1702348;83;21309;-58
2021/08/14 08:24:26;;;;;;;12.95;5.85;;;;;;;22.72;54.12;95218.92;1683906;83;21517;-59
2021/08/14 08:26:54;;;;;;;6.97;5.50;;;;;;;22.89;53.60;95222.45;1688021;83;21419;-58
2021/08/14 08:29:21;;;;;;;10.55;6.22;;;;;;;23.04;52.67;95212.42;1694422;83;21194;-59
2021/08/14 08:31:49;;;;;;;10.98;6.25;;;;;;;23.21;51.42;95222.97;1680496;83;20998;-57
2021/08/14 08:34:23;;;;;;;16.27;6.67;;;;;;;23.37;51.99;95216.50;1701046;83;21131;-59
2021/08/14 08:36:46;;;;;;;12.20;6.35;;;;;;;23.51;53.39;95215.41;1714831;81;21050;-59
2021/08/14 08:39:13;;;;;;;13.40;7.20;;;;;;;23.68;52.98;95218.88;1717276;83;21058;-58
2021/08/14 08:41:40;;;;;;;12.58;6.35;;;;;;;23.85;52.98;95206.91;1711781;82;21458;-57
2021/08/14 08:44:07;;;;;;;15.23;5.50;;;;;;;24.02;52.39;95210.35;1707348;83;20956;-57
2021/08/14 08:46:33;;;;;;;9.78;5.92;;;;;;;24.20;51.08;95201.25;1699500;82;21116;-58
2021/08/14 08:49:00;;;;;;;10.65;5.78;;;;;;;24.37;50.11;95206.08;1711909;82;20991;-58
2021/08/14 08:51:30;;;;;;;9.03;5.53;;;;;;;24.51;49.75;95209.11;1712374;83;21633;-59
2021/08/14 08:53:59;;;;;;;8.35;5.85;;;;;;;24.63;50.34;95200.09;1716069;82;21420;-57
2021/08/14 08:56:27;;;;;;;6.37;5.47;;;;;;;24.75;50.28;95202.13;1714149;82;20947;-58
2021/08/14 08:58:54;;;;;;;7.78;5.60;;;;;;;24.89;50.45;95196.70;1717068;82;21139;-59
2021/08/14 09:01:20;;;;;;;6.97;5.10;;;;;;;25.04;49.69;95201.27;1714344;82;21007;-58
2021/08/14 09:03:48;;;;;;;11.80;5.65;;;;;;;25.17;49.49;95194.32;1715026;83;21038;-58
2021/08/14 09:06:17;;;;;;;8.95;4.83;;;;;;;25.31;48.73;95191.08;1715178;82;21051;-58
2021/08/14 09:09:08;;;;;;;10.55;5.15;;;;;;;25.43;48.21;95185.41;1713647;82;21061;-57
2021/08/14 09:11:50;;;;;;;6.90;5.40;;;;;;;25.57;47.76;95184.20;1706694;82;21210;-58
2021/08/14 09:14:17;;;;;;;6.42;4.58;;;;;;;25.73;46.59;95186.64;1691696;83;21050;-58
2021/08/14 09:16:45;;;;;;;8.83;5.47;;;;;;;25.83;45.42;95182.14;1690657;83;21590;-57
2021/08/14 09:19:22;;;;;;;6.67;4.37;;;;;;;25.94;46.06;95170.06;1705611;82;21029;-58
2021/08/14 09:21:49;;;;;;;7.47;4.40;;;;;;;26.05;44.39;95167.82;1704235;83;21097;-58
2021/08/14 09:24:32;;;;;;;5.72;5.05;;;;;;;26.19;44.38;95173.61;1702006;82;21426;-58
2021/08/14 09:27:00;;;;;;;7.53;4.92;;;;;;;26.32;43.78;95166.56;1699636;83;21068;-57
2021/08/14 09:29:38;;;;;;;8.30;4.60;;;;;;;26.49;44.92;95164.23;1705165;82;20974;-59
2021/08/14 09:32:08;;;;;;;5.58;4.40;;;;;;;26.68;45.15;95166.31;1704011;83;20954;-61
2021/08/14 09:34:43;;;;;;;8.15;4.05;;;;;;;26.87;44.93;95165.55;1704635;83;20959;-59
2021/08/14 09:37:13;;;;;;;6.03;4.60;;;;;;;27.03;43.56;95165.87;1708459;82;21077;-58
2021/08/14 09:39:57;;;;;;;8.65;4.03;;;;;;;27.14;44.32;95167.09;1709532;83;21068;-59
2021/08/14 09:42:25;;;;;;;6.92;5.00;;;;;;;27.26;42.93;95162.70;1707287;83;20974;-59
2021/08/14 09:45:17;;;;;;;8.63;5.42;;;;;;;27.43;43.01;95163.10;1708194;83;21484;-58
2021/08/14 09:47:46;;;;;;;7.17;5.47;;;;;;;27.59;42.69;95154.91;1684259;84;21722;-58
2021/08/14 09:50:13;;;;;;;8.10;4.45;;;;;;;27.77;42.95;95152.58;1703985;83;21087;-60
2021/08/14 09:52:46;;;;;;;8.65;4.55;;;;;;;27.89;41.78;95153.84;1712612;83;21060;-58
2021/08/14 09:55:22;;;;;;;8.05;5.92;;;;;;;27.93;41.94;95150.69;1711807;83;21040;-60
2021/08/14 09:58:05;;;;;;;6.92;4.62;;;;;;;27.98;41.98;95155.55;1700137;83;21115;-59
2021/08/14 10:00:31;;;;;;;6.60;5.00;;;;;;;27.97;40.64;95149.78;1706079;82;21048;-60
2021/08/14 10:02:59;;;;;;;8.40;4.55;;;;;;;27.88;40.94;95146.00;1708634;82;21790;-58
2021/08/14 10:05:26;;;;;;;6.28;4.90;;;;;;;27.82;41.14;95150.30;1699566;83;21171;-58
2021/08/14 10:07:53;;;;;;;10.28;4.72;;;;;;;27.75;41.80;95141.06;1706057;83;20989;-58
2021/08/14 10:10:22;;;;;;;5.67;4.60;;;;;;;27.88;41.67;95138.19;1702174;82;21008;-59
2021/08/14 10:12:50;;;;;;;5.42;4.08;;;;;;;28.10;42.11;95136.22;1712552;82;21280;-57
2021/08/14 10:15:17;;;;;;;6.58;4.75;;;;;;;28.42;41.66;95135.30;1711204;82;21306;-59
2021/08/14 10:17:46;;;;;;;8.43;4.85;;;;;;;28.75;40.74;95132.98;1711198;82;20952;-58
2021/08/14 10:20:13;;;;;;;7.17;4.60;;;;;;;29.08;39.59;95128.55;1697777;82;21553;-58
2021/08/14 10:22:40;;;;;;;7.20;4.60;;;;;;;29.45;39.28;95130.02;1710018;82;21569;-58
2021/08/14 10:25:16;;;;;;;4.87;4.37;;;;;;;29.74;38.47;95118.70;1713446;82;21676;-59
2021/08/14 10:27:58;;;;;;;6.55;4.30;;;;;;;30.05;38.71;95118.21;1710569;82;21145;-59
2021/08/14 10:30:50;;;;;;;5.30;4.35;;;;;;;30.37;39.14;95114.16;1687906;82;21083;-60
2021/08/14 10:33:33;;;;;;;5.90;3.98;;;;;;;30.68;37.68;95108.58;1716039;83;21420;-59
2021/08/14 10:36:35;;;;;;;4.62;4.10;;;;;;;30.92;37.27;95108.72;1712575;83;21037;-61
2021/08/14 10:39:22;;;;;;;6.87;3.80;;;;;;;31.26;37.06;95103.30;1661759;85;21039;-58
2021/08/14 10:41:56;;;;;;;8.23;4.12;;;;;;;31.70;35.52;95107.95;1710311;82;21549;-61
2021/08/14 10:44:45;;;;;;;11.43;4.80;;;;;;;32.08;34.45;95103.55;1715594;82;21120;-59
2021/08/14 10:47:40;;;;;;;9.73;4.03;;;;;;;32.47;34.46;95099.84;1730143;82;21474;-57
2021/08/14 10:50:08;;;;;;;4.17;3.40;;;;;;;32.89;34.06;95102.02;1719145;82;21682;-59
2021/08/14 10:52:38;;;;;;;6.25;4.37;;;;;;;33.29;31.96;95104.00;1699143;82;21051;-59
2021/08/14 10:55:12;;;;;;;10.55;5.10;;;;;;;33.48;29.93;95094.15;1723619;82;21161;-59
2021/08/14 10:57:50;;;;;;;7.85;3.72;;;;;;;33.55;30.73;95095.45;1724472;82;20954;-59
2021/08/14 11:00:23;;;;;;;7.92;5.08;;;;;;;33.95;30.84;95095.89;1696798;82;21002;-64
2021/08/14 11:03:08;;;;;;;4.60;4.05;;;;;;;34.25;30.19;95089.73;1721914;81;21002;-59
2021/08/14 11:05:43;;;;;;;4.80;4.03;;;;;;;34.43;29.18;95082.58;1715994;82;21157;-58
2021/08/14 11:08:28;;;;;;;7.62;3.75;;;;;;;34.83;29.74;95087.13;1728263;82;21103;-58
2021/08/14 11:10:57;;;;;;;3.83;3.45;;;;;;;35.17;28.89;95084.03;1695590;82;20981;-60
2021/08/14 11:13:39;;;;;;;5.30;3.72;;;;;;;35.34;27.28;95088.95;1705042;83;20966;-59
2021/08/14 11:16:06;;;;;;;4.92;3.42;;;;;;;35.45;27.25;95081.86;1698513;83;20978;-61
2021/08/14 11:18:56;;;;;;;3.98;3.45;;;;;;;35.68;27.02;95076.42;1691562;83;21046;-59
2021/08/14 11:21:44;;;;;;;5.45;3.70;;;;;;;35.41;27.01;95076.58;1704984;83;21188;-59
2021/08/14 11:24:32;;;;;;;3.65;3.27;;;;;;;35.33;28.79;95078.85;1670394;83;21035;-58
2021/08/14 11:26:59;;;;;;;6.05;3.92;;;;;;;35.37;28.74;95071.99;1716990;82;21115;-59
2021/08/14 11:29:26;;;;;;;6.92;3.47;;;;;;;35.33;27.67;95070.27;1738928;81;20998;-58
2021/08/14 11:31:58;;;;;;;4.00;3.60;;;;;;;35.38;28.35;95064.91;1747356;82;21041;-62
2021/08/14 11:34:25;;;;;;;;;;;;;;;35.48;28.30;95067.76;1749787;82;21150;-60